Time;durP1;ratioP1;P1;durP2;ratioP2;P2;SDS_P1;SDS_P2;PMS_P1;PMS_P2;Temp;Humidity;BMP_temperature;BMP_pressure;BME280_temperature;BME280_humidity;BME280_pressure;Samples;Min_cycle;Max_cycle;Signal;HPM_P1;HPM_P2
2022/04/08 00:02:19;;;;;;;73.55;4.65;;;;;;;15.03;100.00;96087.63;5004191;28;20654;-57
2022/04/08 00:04:45;;;;;;;103.53;6.38;;;;;;;12.95;73.70;96072.94;5003492;28;20026;-55
2022/04/08 00:07:10;;;;;;;81.07;5.28;;;;;;;15.09;90.40;96086.25;5006189;28;20064;-55
2022/04/08 00:09:35;;;;;;;75.32;4.70;;;;;;;16.70;100.00;96103.84;5007900;28;20056;-55
2022/04/08 00:12:01;;;;;;;86.38;5.32;;;;;;;13.82;79.59;96098.09;5003416;28;20478;-54
2022/04/08 00:14:26;;;;;;;77.40;4.97;;;;;;;15.97;100.00;96097.50;5002263;28;20522;-56
2022/04/08 00:16:51;;;;;;;73.30;4.93;;;;;;;16.98;91.82;96086.22;5004085;28;20124;-54
2022/04/08 00:19:17;;;;;;;81.10;5.28;;;;;;;16.30;100.00;96099.72;5002389;28;20463;-57
2022/04/08 00:21:42;;;;;;;78.95;4.95;;;;;;;16.05;100.00;96103.84;5003924;28;20576;-56
2022/04/08 00:24:08;;;;;;;59.33;4.20;;;;;;;14.31;86.43;96107.03;5002459;28;20026;-55
2022/04/08 00:26:33;;;;;;;90.22;5.75;;;;;;;15.60;100.00;96114.03;5000120;28;20041;-54
2022/04/08 00:28:58;;;;;;;74.82;4.90;;;;;;;17.24;96.82;96103.91;5002723;28;20422;-57
2022/04/08 00:31:24;;;;;;;64.75;4.50;;;;;;;14.87;75.07;96120.59;5003977;28;20040;-57
2022/04/08 00:33:49;;;;;;;76.65;4.90;;;;;;;16.40;100.00;96118.13;5004712;28;20025;-54
2022/04/08 00:36:15;;;;;;;76.10;5.10;;;;;;;15.33;100.00;96116.50;5003782;28;20141;-56
2022/04/08 00:38:40;;;;;;;67.45;4.25;;;;;;;14.98;96.20;96115.22;5001897;28;20137;-55
2022/04/08 00:41:05;;;;;;;79.03;5.10;;;;;;;12.40;100.00;96133.09;5000972;28;20648;-55
2022/04/08 00:43:36;;;;;;;79.78;5.07;;;;;;;15.84;92.55;96125.06;5004420;28;20037;-56
2022/04/08 00:46:03;;;;;;;82.60;4.95;;;;;;;14.17;100.00;96121.34;5002876;28;20030;-56
2022/04/08 00:48:29;;;;;;;72.13;4.68;;;;;;;13.51;85.96;96126.88;5000916;28;20101;-56
2022/04/08 00:50:55;;;;;;;80.53;4.97;;;;;;;15.39;100.00;96134.34;5000457;28;20037;-57
2022/04/08 00:53:21;;;;;;;92.90;5.88;;;;;;;12.85;100.00;96125.19;4998906;28;20036;-54
2022/04/08 00:55:47;;;;;;;80.65;5.32;;;;;;;12.87;79.92;96132.94;5002834;28;20048;-55
2022/04/08 00:58:13;;;;;;;92.88;5.50;;;;;;;15.29;100.00;96138.75;5004716;28;20033;-56
2022/04/08 01:00:38;;;;;;;80.32;5.28;;;;;;;16.03;90.56;96142.59;5003749;28;20513;-55
2022/04/08 01:03:05;;;;;;;72.85;4.63;;;;;;;15.10;100.00;96132.53;5000116;28;20087;-54
2022/04/08 01:05:32;;;;;;;84.63;5.13;;;;;;;13.72;65.87;96141.78;4999117;28;20109;-55
2022/04/08 01:07:57;;;;;;;74.45;4.80;;;;;;;14.36;99.11;96157.31;5004502;28;20022;-56
2022/04/08 01:10:23;;;;;;;91.13;5.70;;;;;;;14.58;100.00;96155.50;5003053;28;20036;-56
2022/04/08 01:12:49;;;;;;;73.80;4.97;;;;;;;12.96;67.83;96154.88;5000957;28;20026;-56
2022/04/08 01:15:17;;;;;;;85.63;5.28;;;;;;;14.90;100.00;96180.72;5005797;28;20917;-56
2022/04/08 01:17:43;;;;;;;80.60;5.05;;;;;;;15.36;100.00;96181.91;5003788;28;20108;-56
2022/04/08 01:20:08;;;;;;;79.18;4.95;;;;;;;14.30;90.91;96168.31;5010246;28;20098;-54
2022/04/08 01:22:35;;;;;;;82.38;5.07;;;;;;;15.13;100.00;96176.91;5007509;28;20072;-56
2022/04/08 01:25:03;;;;;;;88.72;5.53;;;;;;;14.26;100.00;96183.50;5004262;28;20031;-56
2022/04/08 01:27:28;;;;;;;74.53;5.15;;;;;;;14.56;79.14;96189.69;5006424;28;20145;-56
2022/04/08 01:29:54;;;;;;;56.08;3.90;;;;;;;15.23;100.00;96198.72;5009084;28;20203;-56
2022/04/08 01:32:20;;;;;;;87.88;5.38;;;;;;;14.50;100.00;96199.88;5005272;28;20045;-58
2022/04/08 01:34:48;;;;;;;103.60;6.45;;;;;;;13.56;100.00;96215.53;5005299;28;20041;-58
2022/04/08 01:37:14;;;;;;;78.75;5.38;;;;;;;14.88;98.38;96209.72;5003272;28;20037;-58
2022/04/08 01:39:41;;;;;;;89.85;5.60;;;;;;;13.89;82.07;96206.69;5000498;28;20028;-57
2022/04/08 01:42:07;;;;;;;79.07;5.20;;;;;;;13.45;100.00;96214.66;5003957;28;20080;-57
2022/04/08 01:44:32;;;;;;;73.07;4.82;;;;;;;15.30;100.00;96208.72;5006449;28;20091;-58
2022/04/08 01:46:58;;;;;;;76.25;4.88;;;;;;;14.02;73.20;96202.13;5006793;28;20092;-55
2022/04/08 01:49:23;;;;;;;84.50;5.35;;;;;;;12.86;72.91;96212.34;5003792;28;20497;-58
2022/04/08 01:51:48;;;;;;;74.85;5.05;;;;;;;12.81;88.42;96215.34;5001105;28;20072;-57
2022/04/08 01:54:14;;;;;;;85.43;5.25;;;;;;;14.73;100.00;96211.88;5001335;28;20041;-56
2022/04/08 01:56:39;;;;;;;80.20;5.13;;;;;;;16.15;100.00;96210.66;5004385;28;20100;-58
2022/04/08 01:59:04;;;;;;;74.60;4.75;;;;;;;13.73;100.00;96214.16;5003025;28;20112;-57
2022/04/08 02:01:30;;;;;;;81.97;5.22;;;;;;;14.35;100.00;96213.31;5002301;28;20044;-56
2022/04/08 02:03:55;;;;;;;86.15;5.32;;;;;;;13.17;100.00;96226.47;5010204;28;20033;-56
2022/04/08 02:06:20;;;;;;;80.38;5.18;;;;;;;14.01;83.80;96221.41;5003690;28;20038;-56
2022/04/08 02:08:45;;;;;;;67.45;4.55;;;;;;;12.03;85.86;96227.41;5003268;28;20041;-57
2022/04/08 02:11:11;;;;;;;84.55;5.35;;;;;;;13.37;100.00;96238.00;5001077;28;20042;-56
2022/04/08 02:13:36;;;;;;;74.50;4.90;;;;;;;13.07;100.00;96239.44;5004507;28;20018;-57
2022/04/08 02:16:03;;;;;;;91.20;5.75;;;;;;;14.01;100.00;96242.38;5006630;28;20890;-56
2022/04/08 02:18:29;;;;;;;80.10;5.32;;;;;;;14.52;100.00;96250.41;5003696;28;20075;-58
2022/04/08 02:20:56;;;;;;;80.38;4.90;;;;;;;13.49;100.00;96251.88;5007159;28;20038;-57
2022/04/08 02:23:21;;;;;;;75.65;4.95;;;;;;;15.23;100.00;96239.94;5007853;28;20116;-58
2022/04/08 02:25:47;;;;;;;79.32;5.07;;;;;;;13.35;99.28;96249.56;5002013;28;20484;-56
2022/04/08 02:28:12;;;;;;;81.93;5.30;;;;;;;12.90;100.00;96250.41;5005453;28;20029;-58
2022/04/08 02:30:38;;;;;;;84.78;5.32;;;;;;;13.14;88.45;96247.66;5001817;28;20045;-58
2022/04/08 02:33:04;;;;;;;80.53;5.07;;;;;;;12.91;100.00;96252.91;5004859;28;20068;-58
2022/04/08 02:35:30;;;;;;;71.80;4.65;;;;;;;13.11;100.00;96258.38;5001915;28;20044;-56
2022/04/08 02:37:56;;;;;;;77.30;5.32;;;;;;;11.08;100.00;96260.41;5004960;28;20053;-58
2022/04/08 02:40:21;;;;;;;93.93;5.82;;;;;;;12.09;100.00;96276.59;5004495;28;20022;-58
2022/04/08 02:42:46;;;;;;;73.45;4.90;;;;;;;11.53;98.10;96268.50;5002258;28;20221;-57
2022/04/08 02:45:12;;;;;;;85.85;5.53;;;;;;;10.97;100.00;96271.59;5003310;28;20048;-58
2022/04/08 02:47:44;;;;;;;74.93;4.88;;;;;;;13.85;100.00;96273.44;5008022;28;20037;-57
2022/04/08 02:50:10;;;;;;;78.35;5.03;;;;;;;11.89;100.00;96285.03;5004244;28;20026;-56
2022/04/08 02:52:36;;;;;;;78.53;5.03;;;;;;;13.28;100.00;96280.59;5003180;28;20032;-58
2022/04/08 02:55:01;;;;;;;75.53;4.70;;;;;;;11.77;100.00;96292.00;5005244;28;20033;-58
2022/04/08 02:57:27;;;;;;;87.47;5.32;;;;;;;14.76;100.00;96290.34;5004973;28;20117;-57
2022/04/08 02:59:53;;;;;;;81.75;4.97;;;;;;;10.28;100.00;96291.97;5002405;28;20034;-57
2022/04/08 03:02:19;;;;;;;72.97;4.75;;;;;;;12.37;100.00;96300.69;5004768;28;20041;-57
2022/04/08 03:04:44;;;;;;;95.78;5.82;;;;;;;12.36;100.00;96296.38;5000058;28;20028;-58
2022/04/08 03:07:10;;;;;;;99.93;6.13;;;;;;;12.96;100.00;96311.88;4997617;28;20030;-57
2022/04/08 03:09:36;;;;;;;102.57;6.20;;;;;;;12.84;100.00;96319.75;5002869;28;20022;-56
2022/04/08 03:12:03;;;;;;;85.35;5.28;;;;;;;14.43;100.00;96325.47;5000198;28;20111;-58
2022/04/08 03:14:28;;;;;;;97.25;5.80;;;;;;;11.59;100.00;96317.66;4996344;28;20124;-57
2022/04/08 03:16:53;;;;;;;98.38;5.85;;;;;;;13.64;100.00;96331.84;5001975;28;20037;-58
2022/04/08 03:19:19;;;;;;;94.50;5.40;;;;;;;12.32;100.00;96331.53;5004950;28;20032;-58
2022/04/08 03:21:44;;;;;;;102.10;6.40;;;;;;;12.12;100.00;96327.78;5003341;28;20061;-57
2022/04/08 03:24:10;;;;;;;75.32;4.75;;;;;;;12.72;100.00;96325.94;5003054;28;20025;-57
2022/04/08 03:26:37;;;;;;;90.13;5.55;;;;;;;14.01;100.00;96343.78;5001045;28;20041;-56
2022/04/08 03:29:02;;;;;;;103.80;6.18;;;;;;;14.21;100.00;96334.28;5003306;28;20023;-55
2022/04/08 03:31:29;;;;;;;77.90;4.80;;;;;;;13.58;100.00;96336.75;5001383;28;20037;-55
2022/04/08 03:33:54;;;;;;;86.97;5.28;;;;;;;11.70;100.00;96337.78;4997112;28;20029;-55
2022/04/08 03:36:19;;;;;;;91.32;5.43;;;;;;;14.31;100.00;96337.81;4999579;28;20041;-54
2022/04/08 03:38:45;;;;;;;83.72;5.15;;;;;;;13.75;100.00;96340.63;5001459;28;20114;-56
2022/04/08 03:41:10;;;;;;;83.70;5.28;;;;;;;12.04;100.00;96341.44;5005592;28;20124;-56
2022/04/08 03:43:36;;;;;;;81.57;5.28;;;;;;;11.73;100.00;96346.25;5002717;28;20025;-56
2022/04/08 03:46:01;;;;;;;95.45;5.70;;;;;;;12.13;100.00;96356.44;5004865;28;20045;-54
2022/04/08 03:48:27;;;;;;;92.07;5.57;;;;;;;13.41;100.00;96348.56;5004165;28;20029;-54
2022/04/08 03:50:52;;;;;;;66.82;4.38;;;;;;;12.85;100.00;96357.22;5004052;28;20045;-55
2022/04/08 03:53:18;;;;;;;80.45;4.80;;;;;;;11.60;100.00;96355.91;5002536;28;20664;-55
2022/04/08 03:55:43;;;;;;;94.10;5.75;;;;;;;11.95;100.00;96368.22;5000131;28;20034;-55
2022/04/08 03:58:09;;;;;;;104.55;6.20;;;;;;;14.85;100.00;96362.22;5000948;28;20389;-55
2022/04/08 04:00:36;;;;;;;83.15;5.22;;;;;;;11.90;100.00;96371.16;4999978;28;20049;-58
2022/04/08 04:03:02;;;;;;;89.10;5.32;;;;;;;12.14;100.00;96384.22;5002223;28;20018;-57
2022/04/08 04:05:27;;;;;;;89.35;5.47;;;;;;;11.13;100.00;96373.13;5003559;28;20033;-56
2022/04/08 04:07:52;;;;;;;91.03;5.50;;;;;;;11.06;100.00;96382.31;5001329;28;20026;-54
2022/04/08 04:10:18;;;;;;;99.22;6.03;;;;;;;13.41;100.00;96385.22;5001642;28;20575;-56
2022/04/08 04:12:43;;;;;;;93.45;5.80;;;;;;;12.00;100.00;96397.44;5001793;28;20084;-56
2022/04/08 04:15:09;;;;;;;124.47;7.28;;;;;;;13.64;100.00;96392.09;4995996;28;20116;-58
2022/04/08 04:17:35;;;;;;;85.78;5.22;;;;;;;12.82;100.00;96394.91;4998278;28;20112;-56
2022/04/08 04:20:01;;;;;;;101.00;6.07;;;;;;;11.67;100.00;96396.31;5004297;28;20132;-56
2022/04/08 04:22:26;;;;;;;126.93;7.25;;;;;;;11.62;100.00;96395.78;4998529;28;20148;-58
2022/04/08 04:24:51;;;;;;;115.60;7.03;;;;;;;11.19;100.00;96402.25;4996133;28;20069;-57
2022/04/08 04:27:17;;;;;;;103.22;6.20;;;;;;;10.98;100.00;96399.31;4999953;28;20065;-58
2022/04/08 04:29:42;;;;;;;85.28;5.43;;;;;;;12.51;100.00;96410.25;5002797;28;20034;-57
2022/04/08 04:32:08;;;;;;;99.38;5.88;;;;;;;12.45;100.00;96402.06;4998260;28;20511;-56
2022/04/08 04:34:36;;;;;;;98.63;6.07;;;;;;;12.75;100.00;96409.38;5001134;28;20029;-58
2022/04/08 04:37:02;;;;;;;99.35;6.05;;;;;;;12.33;100.00;96414.25;4995046;28;20041;-57
2022/04/08 04:39:28;;;;;;;125.00;7.13;;;;;;;12.81;100.00;96424.66;5000429;28;20072;-56
2022/04/08 04:41:53;;;;;;;78.35;5.18;;;;;;;12.27;100.00;96419.94;4997715;28;20033;-58
2022/04/08 04:44:19;;;;;;;88.03;5.35;;;;;;;12.11;100.00;96423.66;5005809;28;20025;-57
2022/04/08 04:46:44;;;;;;;92.72;5.80;;;;;;;12.86;100.00;96425.09;5001449;28;20038;-57
2022/04/08 04:49:10;;;;;;;68.00;4.43;;;;;;;11.74;100.00;96423.66;5004406;28;20493;-56
2022/04/08 04:51:36;;;;;;;85.47;5.55;;;;;;;10.61;100.00;96422.66;5001969;28;20062;-55
2022/04/08 04:54:01;;;;;;;94.65;6.45;;;;;;;8.93;90.04;96418.44;5002268;28;20073;-56
2022/04/08 04:56:27;;;;;;;85.00;5.95;;;;;;;8.01;93.71;96422.81;5002715;28;20045;-58
2022/04/08 04:58:52;;;;;;;110.90;7.18;;;;;;;8.40;100.00;96436.22;5002606;28;20129;-58
2022/04/08 05:01:18;;;;;;;91.55;5.90;;;;;;;8.16;98.50;96444.50;4999644;28;20044;-56
2022/04/08 05:03:43;;;;;;;77.78;5.05;;;;;;;8.09;100.00;96437.97;5003343;28;20033;-55
2022/04/08 05:06:08;;;;;;;88.68;5.90;;;;;;;7.86;100.00;96436.66;5003570;28;20030;-55
2022/04/08 05:08:34;;;;;;;87.32;5.60;;;;;;;8.26;100.00;96444.81;5000586;28;20733;-57
2022/04/08 05:10:59;;;;;;;102.78;6.22;;;;;;;9.11;100.00;96448.56;5002097;28;20091;-57
2022/04/08 05:13:24;;;;;;;86.93;5.40;;;;;;;9.90;100.00;96455.00;5001406;28;20480;-57
2022/04/08 05:15:50;;;;;;;99.55;5.70;;;;;;;9.47;100.00;96449.03;4999240;28;20030;-56
2022/04/08 05:18:15;;;;;;;84.18;5.53;;;;;;;8.68;100.00;96451.09;5003193;28;20672;-55
2022/04/08 05:20:40;;;;;;;84.25;5.20;;;;;;;9.52;100.00;96462.59;5001806;28;20114;-57
2022/04/08 05:23:06;;;;;;;91.97;5.57;;;;;;;12.69;100.00;96451.72;5008103;28;20029;-57
2022/04/08 05:25:31;;;;;;;95.15;5.72;;;;;;;11.49;100.00;96461.09;5004908;28;20141;-55
2022/04/08 05:27:57;;;;;;;101.28;6.32;;;;;;;11.33;100.00;96461.31;5004558;28;20040;-55
2022/04/08 05:30:22;;;;;;;104.47;6.25;;;;;;;12.14;100.00;96467.84;4999211;28;20061;-58
2022/04/08 05:32:48;;;;;;;79.47;5.10;;;;;;;12.03;100.00;96470.41;5003418;28;20030;-56
2022/04/08 05:35:17;;;;;;;99.60;6.10;;;;;;;14.21;100.00;96474.09;5002333;28;20103;-56
2022/04/08 05:37:45;;;;;;;78.57;5.05;;;;;;;11.83;100.00;96474.41;5001942;28;20038;-56
2022/04/08 05:40:12;;;;;;;95.10;5.93;;;;;;;12.37;100.00;96478.44;5000538;28;20642;-58
2022/04/08 05:42:39;;;;;;;79.47;5.10;;;;;;;12.02;100.00;96479.19;5007084;28;20851;-59
2022/04/08 05:45:09;;;;;;;79.32;5.07;;;;;;;15.50;100.00;96488.91;5000201;28;21033;-58
2022/04/08 05:47:35;;;;;;;67.78;4.60;;;;;;;13.47;100.00;96490.34;5003277;28;20041;-57
2022/04/08 05:50:01;;;;;;;69.40;4.68;;;;;;;14.98;100.00;96483.59;5003384;28;20993;-57
2022/04/08 05:52:26;;;;;;;74.43;5.28;;;;;;;13.44;89.91;96489.75;5001256;28;20132;-56
2022/04/08 05:54:52;;;;;;;108.97;6.75;;;;;;;12.61;100.00;96488.03;4999370;28;20485;-57
2022/04/08 05:57:19;;;;;;;87.30;5.90;;;;;;;11.44;81.02;96491.06;5002230;28;20038;-58
2022/04/08 05:59:45;;;;;;;79.78;5.38;;;;;;;13.35;98.97;96495.69;4997203;28;20026;-57
2022/04/08 06:02:10;;;;;;;76.25;4.95;;;;;;;13.80;83.67;96486.06;5001159;28;20637;-58
2022/04/08 06:04:36;;;;;;;83.55;5.53;;;;;;;12.53;100.00;96493.84;5002935;28;20025;-56
2022/04/08 06:07:01;;;;;;;69.53;4.97;;;;;;;11.16;89.10;96495.56;5006540;28;20084;-57
2022/04/08 06:09:26;;;;;;;75.88;5.22;;;;;;;13.33;100.00;96516.75;5006905;28;20044;-57
2022/04/08 06:11:52;;;;;;;82.88;5.45;;;;;;;13.48;100.00;96527.84;5004106;28;20137;-56
2022/04/08 06:14:17;;;;;;;82.40;5.35;;;;;;;11.93;88.76;96511.22;5007883;28;20033;-58
2022/04/08 06:16:42;;;;;;;91.95;5.68;;;;;;;13.40;100.00;96520.56;5005902;28;20046;-57
2022/04/08 06:19:08;;;;;;;76.82;5.50;;;;;;;11.85;100.00;96516.91;5008375;28;21074;-57
2022/04/08 06:21:33;;;;;;;67.20;4.70;;;;;;;13.17;100.00;96519.63;5003177;28;20043;-57
2022/04/08 06:23:58;;;;;;;81.93;5.47;;;;;;;12.71;100.00;96523.88;5007401;28;20030;-58
2022/04/08 06:26:24;;;;;;;77.03;5.35;;;;;;;15.17;100.00;96518.84;5003913;28;20042;-56
2022/04/08 06:28:49;;;;;;;84.40;5.75;;;;;;;12.15;84.60;96516.59;5005151;28;20443;-57
2022/04/08 06:31:14;;;;;;;85.10;5.53;;;;;;;13.21;91.16;96517.63;5006587;28;20499;-58
2022/04/08 06:33:41;;;;;;;84.20;5.50;;;;;;;15.45;100.00;96500.75;5009552;28;20025;-58
2022/04/08 06:36:07;;;;;;;76.35;5.40;;;;;;;15.92;100.00;96509.03;5004156;28;20726;-57
2022/04/08 06:38:32;;;;;;;75.55;5.18;;;;;;;14.43;85.02;96502.03;5008820;28;20035;-56
2022/04/08 06:40:57;;;;;;;90.75;6.28;;;;;;;15.02;72.67;96506.03;5004943;28;20034;-60
2022/04/08 06:43:23;;;;;;;82.28;5.50;;;;;;;15.07;81.23;96504.78;5005154;28;20044;-55
2022/04/08 06:45:49;;;;;;;76.10;5.13;;;;;;;15.53;69.36;96488.66;5001323;28;20038;-56
2022/04/08 06:48:15;;;;;;;79.47;5.43;;;;;;;14.13;71.91;96497.44;4999341;28;20087;-58
2022/04/08 06:50:40;;;;;;;77.85;5.60;;;;;;;13.28;66.82;96496.09;5003630;28;20046;-56
2022/04/08 06:53:06;;;;;;;88.38;5.78;;;;;;;14.32;64.29;96486.34;5009448;28;20025;-56
2022/04/08 06:55:32;;;;;;;79.50;5.30;;;;;;;15.46;92.26;96487.50;5005034;28;20566;-56
2022/04/08 06:58:03;;;;;;;74.57;5.35;;;;;;;16.12;75.59;96488.88;5005238;28;20031;-56
2022/04/08 07:00:30;;;;;;;73.20;5.10;;;;;;;13.80;75.30;96500.94;4995718;28;20397;-55
2022/04/08 07:02:55;;;;;;;76.07;5.03;;;;;;;14.86;94.63;96504.78;5006953;28;20053;-57
2022/04/08 07:05:21;;;;;;;76.68;5.25;;;;;;;14.10;98.00;96508.19;5005595;28;20307;-56
2022/04/08 07:07:46;;;;;;;73.50;4.97;;;;;;;13.65;100.00;96516.06;5005219;28;20570;-56
2022/04/08 07:10:13;;;;;;;96.28;6.35;;;;;;;13.24;100.00;96513.00;5004744;28;20714;-56
2022/04/08 07:12:38;;;;;;;88.80;6.22;;;;;;;14.52;100.00;96507.50;5006016;28;20072;-57
2022/04/08 07:15:05;;;;;;;82.15;5.55;;;;;;;14.71;100.00;96506.88;5004711;28;20506;-56
2022/04/08 07:17:31;;;;;;;82.22;5.63;;;;;;;13.78;74.90;96502.84;5001922;28;20157;-57
2022/04/08 07:19:57;;;;;;;97.90;6.53;;;;;;;13.68;69.81;96495.69;5003407;28;20056;-56
2022/04/08 07:22:23;;;;;;;102.72;6.47;;;;;;;14.49;80.96;96498.09;5004718;28;20065;-55
2022/04/08 07:24:49;;;;;;;100.50;6.88;;;;;;;13.86;100.00;96503.91;5003092;28;20022;-56
2022/04/08 07:27:15;;;;;;;88.82;6.20;;;;;;;15.01;97.10;96493.00;5001019;28;20029;-55
2022/04/08 07:29:41;;;;;;;80.32;5.53;;;;;;;16.62;85.14;96485.41;5002224;28;20036;-56
2022/04/08 07:32:06;;;;;;;77.05;5.30;;;;;;;16.55;96.13;96480.66;5001656;28;20033;-55
2022/04/08 07:34:31;;;;;;;95.95;6.30;;;;;;;15.41;78.73;96487.06;4999705;28;20084;-54
2022/04/08 07:36:57;;;;;;;86.20;5.75;;;;;;;14.40;100.00;96488.34;5003487;28;20034;-55
2022/04/08 07:39:22;;;;;;;72.40;5.22;;;;;;;16.11;82.62;96471.44;5004807;28;20056;-56
2022/04/08 07:41:47;;;;;;;80.57;5.55;;;;;;;15.11;100.00;96477.31;5004310;28;20044;-55
2022/04/08 07:44:13;;;;;;;74.32;5.43;;;;;;;15.67;89.90;96470.84;5006144;28;20680;-57
2022/04/08 07:46:38;;;;;;;75.28;5.50;;;;;;;15.93;100.00;96474.72;5005007;28;20026;-55
2022/04/08 07:49:04;;;;;;;75.15;5.45;;;;;;;15.23;93.70;96466.63;5003972;28;20028;-54
2022/04/08 07:51:29;;;;;;;83.28;5.65;;;;;;;16.51;100.00;96458.22;5005742;28;20048;-56
2022/04/08 07:53:54;;;;;;;70.38;4.65;;;;;;;16.88;95.10;96452.28;5005209;28;20032;-54
2022/04/08 07:56:20;;;;;;;80.28;5.50;;;;;;;15.30;69.16;96452.97;5004779;28;20045;-57
2022/04/08 07:58:47;;;;;;;89.88;6.15;;;;;;;15.86;63.41;96460.47;5003793;28;20553;-56
2022/04/08 08:01:13;;;;;;;83.47;5.53;;;;;;;15.48;65.65;96447.97;5001596;28;20068;-56
2022/04/08 08:03:38;;;;;;;76.75;5.50;;;;;;;16.02;82.49;96445.97;5005346;28;20471;-57
2022/04/08 08:06:04;;;;;;;84.78;5.78;;;;;;;17.20;99.52;96447.66;5004211;28;20064;-56
2022/04/08 08:08:29;;;;;;;76.85;5.70;;;;;;;14.92;59.38;96446.53;5002811;28;20239;-55
2022/04/08 08:10:55;;;;;;;73.28;5.50;;;;;;;15.34;58.55;96441.25;5002406;28;20057;-55
2022/04/08 08:13:21;;;;;;;75.95;5.35;;;;;;;15.47;74.55;96438.41;5002728;28;20451;-55
2022/04/08 08:15:47;;;;;;;63.92;4.72;;;;;;;17.20;100.00;96442.41;5002282;28;20158;-57
2022/04/08 08:18:13;;;;;;;75.00;5.50;;;;;;;15.57;70.33;96437.50;4999681;28;20044;-57
2022/04/08 08:20:39;;;;;;;83.45;5.82;;;;;;;14.54;61.33;96432.13;4999845;28;20070;-57
2022/04/08 08:23:06;;;;;;;84.57;5.97;;;;;;;14.14;64.21;96430.94;5000756;28;20037;-57
2022/04/08 08:25:32;;;;;;;78.45;5.50;;;;;;;16.36;69.36;96423.59;5001012;28;20040;-55
2022/04/08 08:28:01;;;;;;;81.07;5.43;;;;;;;17.60;88.48;96417.59;5002233;28;20022;-56
2022/04/08 08:30:29;;;;;;;89.93;5.85;;;;;;;15.99;81.57;96426.88;5002412;28;20033;-55
2022/04/08 08:32:54;;;;;;;74.22;5.22;;;;;;;15.21;55.89;96425.69;5002303;28;20023;-57
2022/04/08 08:35:20;;;;;;;75.00;5.55;;;;;;;15.05;63.65;96426.16;4998228;28;20026;-57
2022/04/08 08:37:47;;;;;;;79.00;5.63;;;;;;;15.99;59.09;96426.88;5004675;28;20072;-57
2022/04/08 08:40:15;;;;;;;93.15;6.25;;;;;;;17.49;63.88;96424.69;5015679;28;20068;-56
2022/04/08 08:42:42;;;;;;;82.32;5.60;;;;;;;16.19;86.14;96438.25;5006141;28;20041;-57
2022/04/08 08:45:11;;;;;;;80.95;5.65;;;;;;;15.99;76.66;96426.03;5003562;28;20109;-56
2022/04/08 08:47:36;;;;;;;79.13;5.68;;;;;;;15.77;60.01;96421.84;5005709;28;20030;-57
2022/04/08 08:50:04;;;;;;;84.72;5.97;;;;;;;15.81;62.33;96423.22;4999458;28;20037;-55
2022/04/08 08:52:31;;;;;;;84.90;5.60;;;;;;;17.30;88.17;96424.78;5002689;28;20482;-55
2022/04/08 08:54:56;;;;;;;101.63;6.85;;;;;;;15.33;58.32;96423.81;5000403;28;20547;-55
2022/04/08 08:57:23;;;;;;;87.10;5.85;;;;;;;14.90;69.04;96422.19;5000025;28;20045;-57
2022/04/08 08:59:51;;;;;;;81.38;5.53;;;;;;;14.68;78.60;96423.97;4999246;28;20031;-57
2022/04/08 09:02:19;;;;;;;79.85;5.20;;;;;;;13.92;81.21;96421.34;5002419;28;20096;-56
2022/04/08 09:04:45;;;;;;;86.50;5.70;;;;;;;17.10;100.00;96422.19;5004222;28;20551;-56
2022/04/08 09:07:22;;;;;;;67.18;4.70;;;;;;;16.05;100.00;96424.66;4997390;28;20037;-56
2022/04/08 09:09:58;;;;;;;75.50;5.53;;;;;;;12.70;63.31;96429.81;5003518;28;20531;-56
2022/04/08 09:12:26;;;;;;;71.38;4.95;;;;;;;15.69;100.00;96429.50;5000098;28;20213;-54
2022/04/08 09:14:57;;;;;;;107.68;6.70;;;;;;;14.80;88.78;96422.97;5004515;28;20036;-57
2022/04/08 09:17:24;;;;;;;82.20;5.70;;;;;;;14.00;80.43;96424.19;5002070;28;20551;-55
2022/04/08 09:19:52;;;;;;;84.90;5.75;;;;;;;14.43;100.00;96420.72;5000082;28;20105;-55
2022/04/08 09:22:18;;;;;;;75.10;5.38;;;;;;;15.15;70.77;96420.97;5001603;28;20065;-58
2022/04/08 09:24:44;;;;;;;97.28;6.43;;;;;;;15.12;71.71;96406.28;5001133;28;20041;-56
2022/04/08 09:27:10;;;;;;;76.55;5.03;;;;;;;14.45;91.51;96403.06;5001959;28;20037;-54
2022/04/08 09:29:36;;;;;;;77.25;5.07;;;;;;;16.10;100.00;96401.41;5003850;28;20123;-55
2022/04/08 09:32:08;;;;;;;81.35;5.35;;;;;;;13.89;79.23;96400.63;5002332;28;20041;-55
2022/04/08 09:34:34;;;;;;;71.70;5.00;;;;;;;14.16;73.32;96402.81;5005677;28;20033;-56
2022/04/08 09:37:06;;;;;;;80.03;5.35;;;;;;;16.13;100.00;96401.13;5003064;28;20045;-56
2022/04/08 09:39:31;;;;;;;80.68;5.45;;;;;;;15.02;87.13;96389.69;5000736;28;20058;-56
2022/04/08 09:41:56;;;;;;;88.78;6.10;;;;;;;13.53;70.08;96399.97;5003045;28;20091;-56
2022/04/08 09:44:26;;;;;;;73.10;5.07;;;;;;;14.69;80.62;96394.16;5003785;28;20045;-55
2022/04/08 09:46:52;;;;;;;71.50;5.20;;;;;;;14.70;100.00;96389.75;5006498;28;20050;-55
2022/04/08 09:49:18;;;;;;;72.38;5.03;;;;;;;14.41;100.00;96391.19;5007098;28;20060;-56
2022/04/08 09:51:48;;;;;;;68.82;4.63;;;;;;;13.95;83.50;96400.16;5005966;28;20759;-57
2022/04/08 09:54:20;;;;;;;84.60;5.50;;;;;;;12.90;100.00;96399.53;5003217;28;20041;-56
2022/04/08 09:56:45;;;;;;;86.57;5.65;;;;;;;11.34;100.00;96394.25;5005146;28;20660;-55
2022/04/08 09:59:15;;;;;;;91.00;6.20;;;;;;;11.04;100.00;96384.19;5005497;28;20645;-55
2022/04/08 10:01:43;;;;;;;97.47;6.10;;;;;;;12.89;100.00;96385.63;5005476;28;20045;-56
2022/04/08 10:04:10;;;;;;;98.10;6.05;;;;;;;13.29;100.00;96389.59;5016615;28;20049;-55
2022/04/08 10:06:39;;;;;;;78.40;5.35;;;;;;;12.04;100.00;96377.16;5005009;28;20053;-56
2022/04/08 10:09:07;;;;;;;82.93;5.38;;;;;;;15.26;100.00;96383.31;5005288;28;20026;-56
2022/04/08 10:11:50;;;;;;;74.80;4.90;;;;;;;14.05;100.00;96374.84;5003855;28;20105;-56
2022/04/08 10:14:49;;;;;;;103.32;6.50;;;;;;;12.68;100.00;96376.78;5008910;28;20056;-56
2022/04/08 10:17:15;;;;;;;105.10;6.53;;;;;;;13.22;100.00;96376.16;5003955;28;20046;-58
2022/04/08 10:19:40;;;;;;;93.57;5.97;;;;;;;11.39;100.00;96376.50;5005908;28;20040;-56
2022/04/08 10:22:19;;;;;;;74.75;5.43;;;;;;;11.31;100.00;96363.19;5006952;28;20081;-56
2022/04/08 10:25:17;;;;;;;91.43;6.13;;;;;;;11.30;100.00;96366.72;5005983;28;20113;-58
2022/04/08 10:27:44;;;;;;;91.68;6.07;;;;;;;10.61;100.00;96359.25;4988605;28;20046;-56
2022/04/08 10:30:23;;;;;;;85.22;5.88;;;;;;;10.61;100.00;96359.25;4992298;28;20026;-56
2022/04/08 10:32:59;;;;;;;91.63;6.07;;;;;;;10.07;100.00;96349.72;5002960;28;20136;-57
2022/04/08 10:35:25;;;;;;;91.25;5.90;;;;;;;11.37;100.00;96347.06;5003351;28;20053;-58
2022/04/08 10:38:04;;;;;;;82.57;5.78;;;;;;;10.66;100.00;96341.53;5004824;28;20121;-56
2022/04/08 10:40:36;;;;;;;110.00;6.97;;;;;;;11.37;100.00;96329.63;5005510;28;20038;-56
2022/04/08 10:43:06;;;;;;;77.40;5.28;;;;;;;10.75;100.00;96324.41;5002467;28;20220;-56
2022/04/08 10:45:32;;;;;;;97.30;6.80;;;;;;;11.46;100.00;96316.88;5003592;28;20050;-55
2022/04/08 10:48:12;;;;;;;86.20;6.05;;;;;;;11.04;100.00;96303.31;5002835;28;20018;-57
2022/04/08 10:50:38;;;;;;;106.97;6.50;;;;;;;11.72;100.00;96294.94;5002593;28;20072;-57
2022/04/08 10:53:13;;;;;;;86.82;6.00;;;;;;;12.07;100.00;96293.31;5002540;28;20028;-55
2022/04/08 10:55:51;;;;;;;101.78;6.22;;;;;;;12.87;100.00;96282.88;5005953;28;20045;-57
2022/04/08 10:58:35;;;;;;;108.97;6.57;;;;;;;13.50;100.00;96280.56;5003864;28;20026;-57
2022/04/08 11:01:13;;;;;;;78.72;5.28;;;;;;;12.48;100.00;96276.31;5004777;28;20455;-56
2022/04/08 11:03:44;;;;;;;70.93;4.90;;;;;;;13.82;100.00;96268.44;5004710;28;20065;-55
2022/04/08 11:06:10;;;;;;;84.88;5.50;;;;;;;11.88;100.00;96275.53;5005978;28;20045;-56
2022/04/08 11:08:35;;;;;;;75.32;5.05;;;;;;;12.85;100.00;96269.09;5005166;28;20125;-55
2022/04/08 11:11:01;;;;;;;81.65;5.32;;;;;;;11.53;100.00;96258.06;5003436;28;20034;-55
2022/04/08 11:13:26;;;;;;;76.53;5.78;;;;;;;12.31;100.00;96254.06;5004991;28;20037;-54
2022/04/08 11:15:52;;;;;;;79.35;5.43;;;;;;;11.83;100.00;96254.16;5003413;28;20034;-54
2022/04/08 11:18:20;;;;;;;68.13;5.15;;;;;;;10.68;100.00;96235.38;5003908;28;20053;-55